Time;durP1;ratioP1;P1;durP2;ratioP2;P2;SDS_P1;SDS_P2;PMS_P1;PMS_P2;Temp;Humidity;BMP_temperature;BMP_pressure;BME280_temperature;BME280_humidity;BME280_pressure;Samples;Min_cycle;Max_cycle;Signal;HPM_P1;HPM_P2
2023/01/09 00:01:00;;;;;;;27.93;17.50;;;;;;;7.29;61.91;94908.66;5130021;27;20587;-44
2023/01/09 00:03:27;;;;;;;30.73;18.50;;;;;;;7.18;61.84;94897.66;5129285;27;20233;-49
2023/01/09 00:05:55;;;;;;;30.37;17.90;;;;;;;7.27;61.79;94907.97;5129774;27;20184;-45
2023/01/09 00:08:22;;;;;;;29.73;17.53;;;;;;;7.28;61.91;94908.78;5130036;27;20188;-43
2023/01/09 00:10:49;;;;;;;27.87;17.93;;;;;;;7.27;61.98;94914.78;5130369;27;20191;-45
2023/01/09 00:13:17;;;;;;;28.63;18.60;;;;;;;7.25;61.85;94904.75;5130227;27;20192;-45
2023/01/09 00:15:44;;;;;;;32.10;17.90;;;;;;;7.24;61.95;94895.47;5130120;27;20212;-45
2023/01/09 00:18:11;;;;;;;31.47;18.87;;;;;;;7.24;61.88;94892.13;5130121;27;20204;-44
2023/01/09 00:20:38;;;;;;;23.90;16.67;;;;;;;7.23;61.95;94893.84;5129941;27;20227;-44
2023/01/09 00:23:06;;;;;;;28.00;17.70;;;;;;;7.22;61.98;94891.44;5129742;27;20636;-46
2023/01/09 00:25:33;;;;;;;31.00;17.60;;;;;;;7.22;62.03;94893.97;5130813;27;20196;-47
2023/01/09 00:28:00;;;;;;;30.77;18.00;;;;;;;7.09;61.98;94878.00;5130378;27;20192;-46
2023/01/09 00:30:27;;;;;;;26.73;16.60;;;;;;;7.19;61.96;94902.63;5130599;27;20192;-44
2023/01/09 00:32:54;;;;;;;27.67;17.67;;;;;;;7.18;61.90;94893.38;5129909;27;20176;-45
2023/01/09 00:35:23;;;;;;;26.93;16.97;;;;;;;7.17;62.06;94899.41;5130279;27;20222;-44
2023/01/09 00:37:50;;;;;;;24.83;17.17;;;;;;;7.16;62.09;94900.31;5129880;28;20181;-45
2023/01/09 00:40:18;;;;;;;29.37;17.73;;;;;;;7.15;62.22;94901.22;5130146;28;20719;-44
2023/01/09 00:42:49;;;;;;;32.57;18.13;;;;;;;7.13;62.14;94900.56;5129753;28;20659;-45
2023/01/09 00:45:20;;;;;;;28.63;17.13;;;;;;;7.13;61.90;94902.28;5130229;28;20173;-45
2023/01/09 00:47:49;;;;;;;27.60;17.20;;;;;;;7.12;62.08;94898.91;5129499;28;20202;-45
2023/01/09 00:50:21;;;;;;;25.20;16.30;;;;;;;6.98;62.06;94877.03;5129654;28;20188;-44
2023/01/09 00:52:50;;;;;;;28.27;16.13;;;;;;;7.10;62.07;94903.31;5129579;28;20199;-45
2023/01/09 00:55:18;;;;;;;27.43;15.53;;;;;;;7.10;62.09;94894.88;5129809;28;20199;-45
2023/01/09 00:57:45;;;;;;;31.77;17.23;;;;;;;7.09;62.08;94899.16;5129824;28;20193;-44
2023/01/09 01:00:13;;;;;;;26.37;16.50;;;;;;;7.08;62.06;94900.06;5129799;28;20603;-45
2023/01/09 01:02:40;;;;;;;25.03;15.77;;;;;;;7.07;62.18;94902.72;5118168;28;20189;-45
2023/01/09 01:07:52;;;;;;;22.67;15.27;;;;;;;7.04;62.14;94899.47;5129268;28;20245;-46
2023/01/09 01:10:23;;;;;;;24.37;15.57;;;;;;;7.03;62.10;94892.75;5129846;28;20188;-45
2023/01/09 01:12:51;;;;;;;28.97;17.33;;;;;;;7.01;62.16;94889.53;5129758;28;20202;-44
2023/01/09 01:15:18;;;;;;;23.47;15.53;;;;;;;6.99;62.11;94875.28;5130162;28;20188;-46
2023/01/09 01:50:21;;;;;;;25.00;15.13;;;;;;;6.98;62.50;94845.72;5130606;27;20918;-47
2023/01/09 01:52:54;;;;;;;22.60;14.93;;;;;;;6.97;62.50;94841.56;5124185;28;20192;-49
2023/01/09 01:55:21;;;;;;;23.17;13.47;;;;;;;6.94;62.19;94840.03;5110193;27;20189;-47
2023/01/09 01:57:50;;;;;;;23.53;14.60;;;;;;;6.89;62.27;94826.84;5104312;28;20881;-52
2023/01/09 02:00:21;;;;;;;19.67;13.80;;;;;;;6.92;62.41;94828.38;5103661;28;20660;-50
2023/01/09 02:02:48;;;;;;;23.70;14.83;;;;;;;6.88;62.47;94825.25;5103988;28;20192;-49
2023/01/09 02:05:16;;;;;;;21.40;13.37;;;;;;;6.89;62.25;94826.06;5104255;28;20581;-49
2023/01/09 02:07:43;;;;;;;21.57;14.37;;;;;;;6.88;62.32;94822.69;5103993;28;20185;-51
2023/01/09 02:10:10;;;;;;;22.40;13.33;;;;;;;6.86;62.46;94813.56;5103440;28;20283;-47
2023/01/09 02:12:37;;;;;;;24.37;14.47;;;;;;;6.86;62.39;94813.56;5103561;28;20189;-46
2023/01/09 02:15:07;;;;;;;21.00;13.67;;;;;;;6.85;62.43;94817.03;5103934;28;20181;-47
2023/01/09 02:17:59;;;;;;;20.67;13.63;;;;;;;6.78;62.36;94801.44;5103387;28;20196;-47
2023/01/09 02:20:39;;;;;;;22.50;13.63;;;;;;;6.82;62.41;94815.50;5100432;28;20717;-48
2023/01/09 02:23:48;;;;;;;24.93;13.17;;;;;;;6.82;62.50;94820.59;5103565;28;20193;-52
2023/01/09 02:26:44;;;;;;;22.77;13.67;;;;;;;6.80;62.35;94819.91;5040188;28;20198;-48
2023/01/09 02:29:39;;;;;;;21.60;13.27;;;;;;;6.78;62.61;94817.47;4986068;28;20217;-49
2023/01/09 02:32:19;;;;;;;19.20;12.50;;;;;;;6.78;62.47;94819.22;5003377;28;20204;-51
2023/01/09 02:34:51;;;;;;;21.63;13.67;;;;;;;6.76;62.56;94813.41;5002986;28;20193;-46
2023/01/09 02:37:29;;;;;;;21.67;12.50;;;;;;;6.74;62.49;94810.19;5003233;28;20214;-47
2023/01/09 02:40:04;;;;;;;19.57;12.80;;;;;;;6.74;62.55;94800.03;5002910;28;21032;-47
2023/01/09 02:42:32;;;;;;;20.27;13.00;;;;;;;6.68;62.49;94793.66;5003004;28;20196;-50
2023/01/09 02:44:58;;;;;;;25.00;13.73;;;;;;;6.71;62.53;94798.50;5003404;28;20204;-48
2023/01/09 02:47:38;;;;;;;21.13;13.37;;;;;;;6.74;62.54;94800.84;5003022;28;20200;-47
2023/01/09 02:50:10;;;;;;;22.07;13.30;;;;;;;6.72;62.52;94801.84;4995849;28;20225;-49
2023/01/09 02:52:53;;;;;;;18.93;12.60;;;;;;;6.73;62.43;94803.47;4989889;28;20197;-48
2023/01/09 02:55:35;;;;;;;23.33;13.43;;;;;;;6.71;62.44;94803.59;4989554;28;20582;-54
2023/01/09 02:58:10;;;;;;;23.10;12.83;;;;;;;6.70;62.48;94799.44;4989918;28;20185;-52
2023/01/09 03:00:47;;;;;;;17.67;13.03;;;;;;;6.70;62.55;94799.44;4989662;28;20193;-48
2023/01/09 03:03:26;;;;;;;24.27;12.50;;;;;;;6.69;62.65;94800.38;5052209;28;20679;-50
2023/01/09 03:05:59;;;;;;;21.60;13.70;;;;;;;6.67;62.48;94796.31;5084371;28;20692;-51
2023/01/09 03:08:33;;;;;;;22.07;14.23;;;;;;;6.68;62.65;94798.72;5111998;28;20200;-49
2023/01/09 03:11:03;;;;;;;21.47;13.20;;;;;;;6.66;62.61;94792.97;5111979;28;20207;-48
2023/01/09 03:13:35;;;;;;;20.03;12.47;;;;;;;6.66;62.67;94800.59;5111937;28;20189;-48
2023/01/09 03:16:07;;;;;;;18.27;12.93;;;;;;;6.66;62.66;94797.22;5111732;28;20197;-49
2023/01/09 03:18:37;;;;;;;20.50;12.60;;;;;;;6.66;62.57;94797.22;5111062;28;20215;-47
2023/01/09 03:21:06;;;;;;;21.60;13.23;;;;;;;6.64;62.70;94797.31;5091439;28;20189;-47
2023/01/09 03:43:36;;;;;;;18.93;12.73;;;;;;;6.97;61.58;94788.97;5127788;27;20948;-46
2023/01/09 03:46:04;;;;;;;19.70;12.47;;;;;;;6.91;61.80;94789.44;5127628;27;20212;-43
2023/01/09 03:48:31;;;;;;;20.33;13.77;;;;;;;6.86;61.76;94803.38;5126784;27;20669;-45
2023/01/09 03:50:58;;;;;;;18.40;13.00;;;;;;;6.82;61.86;94799.44;5126786;27;20191;-45
2023/01/09 03:53:26;;;;;;;20.87;13.63;;;;;;;6.77;62.04;94800.59;5127517;27;20184;-47
2023/01/09 03:55:55;;;;;;;20.30;12.60;;;;;;;6.76;61.94;94806.59;5127510;27;20185;-46
2023/01/09 03:58:23;;;;;;;17.73;12.37;;;;;;;6.71;62.29;94795.16;5127250;27;20511;-48
2023/01/09 04:00:52;;;;;;;22.37;12.77;;;;;;;6.71;62.31;94797.72;5127243;27;20614;-44
2023/01/09 04:03:20;;;;;;;21.57;12.30;;;;;;;6.68;62.23;94797.91;5127369;27;20214;-43
2023/01/09 04:05:49;;;;;;;19.93;12.97;;;;;;;6.64;62.35;94793.97;5129214;28;20187;-47
2023/01/09 04:08:16;;;;;;;20.23;13.00;;;;;;;6.65;62.41;94800.69;5130087;27;20582;-45
2023/01/09 04:10:44;;;;;;;18.57;12.80;;;;;;;6.64;62.31;94796.53;5130247;27;20208;-44
2023/01/09 04:13:11;;;;;;;18.47;13.13;;;;;;;6.63;62.53;94800.00;5128028;27;20281;-45
2023/01/09 04:15:38;;;;;;;20.73;13.33;;;;;;;6.62;62.47;94789.03;5126688;27;20576;-45
2023/01/09 04:18:06;;;;;;;19.73;12.47;;;;;;;6.63;62.57;94794.91;5128585;27;20192;-47
2023/01/09 04:20:33;;;;;;;19.07;12.10;;;;;;;6.61;62.57;94786.59;5127572;27;20246;-45
2023/01/09 04:23:00;;;;;;;16.57;12.70;;;;;;;6.61;62.63;94791.69;5126865;27;20630;-46
2023/01/09 04:25:27;;;;;;;18.67;12.03;;;;;;;6.61;62.66;94792.50;5126581;27;20241;-45
2023/01/09 04:27:54;;;;;;;19.60;13.07;;;;;;;6.60;62.63;94788.31;5126596;27;20710;-45
2023/01/09 04:30:21;;;;;;;18.23;12.27;;;;;;;6.61;63.01;94791.69;5126646;27;20665;-44
2023/01/09 04:32:48;;;;;;;19.47;12.67;;;;;;;6.60;62.52;94793.38;5125912;27;20292;-45
2023/01/09 04:35:17;;;;;;;21.23;12.93;;;;;;;6.59;62.70;94784.16;5126210;27;20589;-44
2023/01/09 04:37:43;;;;;;;20.27;12.60;;;;;;;6.59;62.73;94776.53;5126322;27;20193;-44
2023/01/09 04:40:12;;;;;;;19.33;13.40;;;;;;;6.47;62.82;94765.53;5126315;27;20196;-46
2023/01/09 04:42:39;;;;;;;17.40;11.87;;;;;;;6.59;62.81;94783.34;5123599;27;20228;-44
2023/01/09 04:45:08;;;;;;;19.63;13.00;;;;;;;6.56;62.64;94769.13;5112798;28;20551;-45
2023/01/09 04:47:35;;;;;;;19.33;13.20;;;;;;;6.54;62.86;94770.97;5112325;28;20188;-45
2023/01/09 04:50:02;;;;;;;19.93;13.53;;;;;;;6.54;62.81;94774.31;5112213;28;20200;-47
2023/01/09 04:52:30;;;;;;;19.33;12.17;;;;;;;6.57;62.75;94778.38;5112285;28;20582;-45
2023/01/09 04:54:56;;;;;;;19.37;11.80;;;;;;;6.03;62.71;94693.34;5112387;28;20192;-44
2023/01/09 04:57:23;;;;;;;20.33;12.57;;;;;;;6.41;62.77;94748.19;5111708;28;20199;-47
2023/01/09 04:59:50;;;;;;;19.23;13.00;;;;;;;6.58;62.77;94769.03;5112325;28;20178;-46
2023/01/09 05:02:17;;;;;;;18.27;12.07;;;;;;;6.57;62.89;94773.31;5111736;28;20806;-44
2023/01/09 05:04:43;;;;;;;21.97;12.20;;;;;;;6.56;62.74;94769.13;5112075;28;20177;-45
2023/01/09 05:07:10;;;;;;;16.23;12.40;;;;;;;6.56;62.80;94775.94;5111979;28;20189;-44
2023/01/09 05:09:38;;;;;;;21.60;11.73;;;;;;;6.57;62.72;94777.59;5111683;28;20189;-43
2023/01/09 05:12:06;;;;;;;16.53;12.20;;;;;;;6.54;62.74;94783.69;5111748;28;20231;-44
2023/01/09 05:14:33;;;;;;;17.30;11.47;;;;;;;6.56;62.96;94778.47;5112207;28;20197;-45
2023/01/09 05:16:59;;;;;;;18.73;12.30;;;;;;;6.52;62.86;94773.63;5111615;28;20193;-45
2023/01/09 05:19:26;;;;;;;22.17;13.73;;;;;;;6.54;62.76;94786.22;5111882;27;20192;-46
2023/01/09 05:21:53;;;;;;;22.03;11.97;;;;;;;6.51;62.77;94786.44;5111532;28;20196;-48
2023/01/09 05:24:20;;;;;;;19.13;13.07;;;;;;;6.36;62.78;94769.78;5111856;28;20185;-45
2023/01/09 05:26:48;;;;;;;18.67;12.27;;;;;;;6.52;62.88;94788.06;5112105;28;20193;-46
2023/01/09 05:29:15;;;;;;;17.13;12.43;;;;;;;6.51;62.72;94794.06;5112021;28;20204;-46
2023/01/09 05:31:41;;;;;;;17.00;11.57;;;;;;;6.50;62.72;94784.81;5112351;28;20706;-44
2023/01/09 05:34:08;;;;;;;15.87;12.10;;;;;;;6.49;62.85;94780.66;5112690;28;20540;-46
2023/01/09 05:36:35;;;;;;;17.47;12.03;;;;;;;6.48;62.83;94772.25;5114827;28;20200;-45
2023/01/09 05:39:02;;;;;;;15.77;11.83;;;;;;;6.46;62.84;94768.97;5115329;28;20200;-45
2023/01/09 05:41:29;;;;;;;17.27;12.53;;;;;;;6.47;63.00;94765.53;5114355;28;20217;-44
2023/01/09 05:43:57;;;;;;;16.70;12.13;;;;;;;6.45;62.95;94757.22;5112168;28;20717;-44
2023/01/09 05:46:24;;;;;;;17.17;11.97;;;;;;;6.51;62.98;94771.19;5111477;28;20277;-45
2023/01/09 05:48:51;;;;;;;19.97;12.53;;;;;;;6.52;62.92;94772.84;5111088;28;20193;-46
2023/01/09 05:51:18;;;;;;;20.50;13.83;;;;;;;6.51;63.17;94766.91;5110681;28;20271;-44
2023/01/09 05:53:44;;;;;;;22.93;13.37;;;;;;;6.52;62.90;94767.75;5110838;28;20221;-44
2023/01/09 05:56:11;;;;;;;22.30;13.40;;;;;;;6.53;63.10;94774.44;5110013;28;20187;-45
2023/01/09 05:58:38;;;;;;;22.93;14.03;;;;;;;6.53;62.98;94762.56;5111131;28;20626;-43
2023/01/09 06:01:07;;;;;;;21.00;15.13;;;;;;;6.54;63.01;94769.25;5109841;28;20632;-47
2023/01/09 06:03:34;;;;;;;22.23;14.93;;;;;;;6.55;62.70;94770.06;5110530;28;20196;-46
2023/01/09 06:06:01;;;;;;;20.47;14.70;;;;;;;6.60;62.84;94759.56;5110675;27;20596;-48
2023/01/09 06:08:28;;;;;;;24.37;16.27;;;;;;;6.61;62.87;94761.19;5111146;28;20185;-44
2023/01/09 06:10:54;;;;;;;25.10;14.87;;;;;;;6.63;62.79;94757.59;5111158;28;20181;-45
2023/01/09 06:13:21;;;;;;;22.60;15.50;;;;;;;6.68;62.92;94757.25;5110829;28;20237;-46
2023/01/09 06:15:48;;;;;;;27.50;16.90;;;;;;;6.64;62.81;94749.06;5110808;28;20177;-47
2023/01/09 06:18:16;;;;;;;25.37;16.40;;;;;;;6.54;62.73;94731.13;5110776;28;20540;-45
2023/01/09 06:20:44;;;;;;;25.97;16.70;;;;;;;6.76;62.68;94768.47;5110399;28;20185;-46
2023/01/09 06:23:11;;;;;;;26.17;17.60;;;;;;;6.76;62.68;94765.13;5110164;28;20578;-46
2023/01/09 06:25:38;;;;;;;33.20;17.90;;;;;;;6.83;62.74;94760.44;5110670;28;20634;-45
2023/01/09 06:28:05;;;;;;;20.63;11.97;;;;;;;7.37;96.66;94752.91;5110205;27;20215;-45
2023/01/09 06:30:32;;;;;;;21.93;15.50;;;;;;;7.86;94.55;94745.78;5110712;28;20185;-48
2023/01/09 06:32:59;;;;;;;24.87;14.13;;;;;;;8.11;89.86;94745.47;5108703;28;20220;-44
2023/01/09 06:35:27;;;;;;;21.73;13.37;;;;;;;8.26;86.11;94744.25;5109502;28;20212;-45
2023/01/09 06:37:54;;;;;;;34.90;13.40;;;;;;;9.11;100.00;94742.53;5107142;28;20192;-45
2023/01/09 06:40:21;;;;;;;29.57;15.50;;;;;;;10.23;100.00;94737.16;5107842;28;20657;-47
2023/01/09 06:42:48;;;;;;;24.40;14.73;;;;;;;11.31;100.00;94743.69;5108442;28;20251;-44
2023/01/09 06:45:16;;;;;;;23.00;14.03;;;;;;;12.17;100.00;94741.63;5108491;28;20208;-47
2023/01/09 06:47:43;;;;;;;23.97;14.40;;;;;;;12.54;100.00;94744.06;5108733;28;20201;-48
2023/01/09 06:50:11;;;;;;;17.73;13.50;;;;;;;12.78;99.59;94751.13;5108631;28;20689;-43
2023/01/09 06:52:39;;;;;;;20.93;14.40;;;;;;;12.88;97.29;94760.50;5107442;28;20220;-44
2023/01/09 06:55:08;;;;;;;24.00;15.63;;;;;;;12.93;95.60;94755.72;5108392;28;20188;-47
2023/01/09 06:57:35;;;;;;;24.97;16.50;;;;;;;13.02;94.05;94755.63;5106985;28;20185;-46
2023/01/09 07:00:02;;;;;;;23.80;16.60;;;;;;;13.09;92.15;94753.25;5108965;28;20253;-46
2023/01/09 07:02:29;;;;;;;27.53;17.37;;;;;;;13.26;89.12;94755.00;5108620;28;20199;-46
2023/01/09 07:04:57;;;;;;;24.80;16.67;;;;;;;13.47;84.45;94754.63;5108469;28;20669;-45
2023/01/09 07:07:24;;;;;;;26.07;17.93;;;;;;;13.70;80.42;94764.34;5108393;28;20189;-48
2023/01/09 07:09:52;;;;;;;24.80;17.60;;;;;;;13.93;77.19;94764.56;5108104;28;20692;-47
2023/01/09 07:12:19;;;;;;;27.00;17.70;;;;;;;14.17;74.88;94748.41;5109004;28;20280;-48
2023/01/09 07:14:45;;;;;;;21.97;17.23;;;;;;;14.42;73.48;94747.47;5108323;28;20228;-45
2023/01/09 07:17:12;;;;;;;24.73;18.07;;;;;;;14.72;72.34;94743.50;5108192;28;20284;-44
2023/01/09 07:19:39;;;;;;;27.67;18.47;;;;;;;15.03;71.26;94748.78;5108346;28;20283;-45
2023/01/09 07:22:06;;;;;;;22.40;18.00;;;;;;;15.33;70.34;94754.19;5108801;28;20262;-47
2023/01/09 07:24:33;;;;;;;23.77;16.90;;;;;;;15.49;69.33;94730.13;5108470;28;20196;-45
2023/01/09 07:27:01;;;;;;;25.93;18.27;;;;;;;15.92;68.20;94757.19;5107923;28;20631;-45
2023/01/09 07:29:28;;;;;;;29.43;19.10;;;;;;;16.26;67.20;94751.69;5107797;28;20208;-45
2023/01/09 07:31:55;;;;;;;25.00;17.97;;;;;;;16.55;66.23;94745.06;5108749;28;20200;-45
2023/01/09 07:34:22;;;;;;;29.53;18.10;;;;;;;16.88;64.67;94750.81;5108339;28;20197;-45
2023/01/09 07:36:50;;;;;;;26.30;19.00;;;;;;;17.14;63.52;94741.81;5108013;28;20197;-46
2023/01/09 07:39:17;;;;;;;24.10;18.30;;;;;;;17.48;62.53;94752.44;5106018;28;20694;-45
2023/01/09 07:41:43;;;;;;;25.20;18.40;;;;;;;17.83;61.42;94755.31;5108168;28;20223;-45
2023/01/09 07:44:12;;;;;;;23.23;16.83;;;;;;;18.17;60.28;94764.25;5108341;28;20291;-45
2023/01/09 07:46:40;;;;;;;21.83;16.27;;;;;;;18.47;59.32;94754.63;5107986;28;20671;-44
2023/01/09 07:49:07;;;;;;;26.90;16.73;;;;;;;18.72;58.47;94768.84;5107635;28;20567;-46
2023/01/09 07:51:33;;;;;;;25.67;17.57;;;;;;;18.93;57.59;94772.41;5107998;28;20189;-45
2023/01/09 07:54:00;;;;;;;20.90;16.47;;;;;;;18.97;57.41;94776.22;5108577;28;20216;-46
2023/01/09 07:56:27;;;;;;;23.87;16.70;;;;;;;18.94;57.20;94777.38;5108411;28;20192;-46
2023/01/09 07:58:54;;;;;;;22.67;16.17;;;;;;;18.90;56.95;94780.53;5108646;28;20188;-44
2023/01/09 08:01:22;;;;;;;22.43;16.47;;;;;;;18.84;56.66;94779.50;5108530;28;20193;-46
2023/01/09 08:03:49;;;;;;;22.77;15.80;;;;;;;18.76;56.42;94774.44;5108252;28;20189;-44
2023/01/09 08:06:15;;;;;;;25.17;17.70;;;;;;;18.65;56.13;94775.72;5108225;28;20204;-45
2023/01/09 08:08:43;;;;;;;22.90;17.57;;;;;;;18.45;55.87;94775.53;5108611;28;20689;-45
2023/01/09 08:11:09;;;;;;;25.23;16.90;;;;;;;18.22;55.72;94770.50;5109143;28;20637;-46
2023/01/09 08:13:36;;;;;;;28.17;17.73;;;;;;;18.00;55.43;94774.03;5108453;28;20209;-47
2023/01/09 08:16:03;;;;;;;25.50;18.67;;;;;;;17.75;55.28;94765.78;5105539;28;20201;-45
2023/01/09 08:18:31;;;;;;;27.47;19.80;;;;;;;17.60;55.16;94775.28;5109231;28;20189;-46
2023/01/09 08:20:58;;;;;;;30.60;19.53;;;;;;;17.39;54.61;94783.75;5109347;28;20681;-43
2023/01/09 08:23:25;;;;;;;26.10;19.20;;;;;;;17.22;54.86;94781.31;5109341;28;20713;-46
2023/01/09 08:25:53;;;;;;;29.40;20.10;;;;;;;17.02;54.82;94778.44;5110361;28;20297;-46
2023/01/09 08:28:20;;;;;;;30.77;20.60;;;;;;;16.88;54.58;94768.06;5117232;28;20193;-49
2023/01/09 08:30:47;;;;;;;30.97;20.53;;;;;;;16.80;54.34;94768.94;5115033;28;20181;-47
2023/01/09 08:33:14;;;;;;;33.47;21.27;;;;;;;16.70;54.18;94782.03;5111713;28;20231;-45
2023/01/09 08:35:43;;;;;;;31.83;21.63;;;;;;;16.49;54.22;94787.88;5110746;28;20231;-45
2023/01/09 08:38:10;;;;;;;32.23;22.40;;;;;;;16.30;54.37;94783.94;5109307;28;20605;-45
2023/01/09 08:40:37;;;;;;;33.63;23.43;;;;;;;16.13;54.25;94790.16;5111953;28;20193;-44
2023/01/09 08:48:42;;;;;;;33.33;24.10;;;;;;;15.55;54.33;94781.03;5109256;28;20192;-45
2023/01/09 08:51:11;;;;;;;32.83;24.50;;;;;;;15.39;54.44;94776.72;5110904;27;20193;-45
2023/01/09 08:53:37;;;;;;;32.97;24.23;;;;;;;15.21;54.65;94769.19;5111056;28;20291;-44
2023/01/09 08:56:05;;;;;;;35.67;24.37;;;;;;;15.06;54.72;94763.06;5111241;28;20190;-46
2023/01/09 08:58:33;;;;;;;31.63;24.50;;;;;;;14.88;54.81;94747.00;5110990;28;20196;-45
2023/01/09 09:01:00;;;;;;;34.87;24.60;;;;;;;14.65;54.95;94727.09;5109452;28;20200;-45
2023/01/09 09:03:27;;;;;;;42.43;25.97;;;;;;;14.64;54.74;94730.63;5110743;28;20294;-49
2023/01/09 09:05:54;;;;;;;38.00;26.43;;;;;;;14.74;54.80;94756.19;5111283;28;20727;-45
2023/01/09 09:08:22;;;;;;;37.33;25.67;;;;;;;14.71;54.71;94741.06;5111365;28;20192;-44
2023/01/09 09:10:49;;;;;;;40.83;27.73;;;;;;;14.68;54.82;94741.38;5111508;28;20193;-47
2023/01/09 09:13:15;;;;;;;38.03;26.93;;;;;;;14.65;54.54;94729.66;5110599;28;20261;-46
2023/01/09 09:15:42;;;;;;;35.00;26.50;;;;;;;14.64;54.50;94730.63;5110721;28;20590;-45
2023/01/09 09:18:09;;;;;;;37.73;28.03;;;;;;;14.64;54.33;94732.41;5110765;28;20204;-45
2023/01/09 09:20:38;;;;;;;36.97;26.73;;;;;;;14.63;54.49;94723.06;5110996;28;20193;-44
2023/01/09 09:23:07;;;;;;;38.97;27.07;;;;;;;14.61;54.33;94717.28;5110330;28;20177;-45
2023/01/09 09:25:37;;;;;;;36.50;26.97;;;;;;;14.53;54.39;94692.34;5111011;28;20276;-44
2023/01/09 09:28:04;;;;;;;41.20;25.80;;;;;;;14.54;54.37;94696.50;5110380;28;20193;-43
2023/01/09 09:30:30;;;;;;;36.30;26.93;;;;;;;14.55;54.54;94705.88;5110688;28;20197;-46
2023/01/09 09:32:57;;;;;;;35.27;26.47;;;;;;;14.52;54.28;94696.69;5110191;28;20593;-45
2023/01/09 09:35:24;;;;;;;35.90;26.20;;;;;;;14.55;54.39;94695.56;5109954;28;20196;-44
2023/01/09 09:37:56;;;;;;;39.77;26.70;;;;;;;14.34;54.24;94657.44;5109802;28;20177;-45
2023/01/09 09:40:35;;;;;;;36.33;25.67;;;;;;;14.42;54.35;94665.16;5110175;28;20265;-44
2023/01/09 09:46:19;;;;;;;34.13;25.10;;;;;;;14.47;54.24;94660.31;5110048;28;20326;-45
2023/01/09 09:48:51;;;;;;;32.17;23.60;;;;;;;14.44;54.23;94652.13;5108612;28;20208;-43
2023/01/09 09:51:50;;;;;;;32.77;23.67;;;;;;;14.42;54.07;94644.56;5109846;28;20278;-45
2023/01/09 09:54:21;;;;;;;34.73;23.87;;;;;;;14.46;54.14;94640.69;5046389;28;20229;-46
2023/01/09 09:56:52;;;;;;;30.97;21.57;;;;;;;14.46;53.97;94627.00;5047115;28;20206;-44
2023/01/09 09:59:23;;;;;;;27.77;20.90;;;;;;;14.45;53.91;94622.84;5046739;28;20191;-45
2023/01/09 10:01:55;;;;;;;30.07;21.90;;;;;;;14.43;54.07;94614.50;5046199;28;20179;-45
2023/01/09 10:04:25;;;;;;;25.77;19.67;;;;;;;14.43;54.11;94602.44;5047118;28;20202;-47
2023/01/09 10:06:58;;;;;;;29.50;20.70;;;;;;;14.41;54.00;94582.97;5043557;28;20219;-46
2023/01/09 10:09:35;;;;;;;28.03;19.20;;;;;;;14.14;53.94;94545.56;5041997;28;20278;-45
2023/01/09 10:12:20;;;;;;;30.17;20.43;;;;;;;14.42;53.99;94598.25;5043983;28;20894;-46
2023/01/09 10:14:48;;;;;;;31.20;21.27;;;;;;;14.41;53.80;94577.81;5042828;28;20214;-46
2023/01/09 10:17:30;;;;;;;26.97;18.53;;;;;;;14.42;53.77;94576.84;5043575;28;20206;-46
2023/01/09 10:20:31;;;;;;;24.53;19.27;;;;;;;14.41;53.82;94583.75;5047006;28;20206;-45
2023/01/09 10:23:08;;;;;;;23.83;17.97;;;;;;;14.39;53.89;94570.28;5046444;28;20186;-48
2023/01/09 10:25:41;;;;;;;22.90;17.83;;;;;;;14.40;53.80;94574.44;5046140;28;20338;-46
2023/01/09 10:28:27;;;;;;;24.60;17.93;;;;;;;14.44;53.80;94568.00;5043424;28;20241;-45
2023/01/09 10:31:01;;;;;;;25.47;18.37;;;;;;;14.43;53.60;94545.03;5097455;28;20192;-44
2023/01/09 10:33:43;;;;;;;22.97;16.93;;;;;;;14.63;53.19;94551.41;5105982;28;20712;-44
2023/01/09 10:36:35;;;;;;;24.47;16.80;;;;;;;14.72;53.09;94557.34;5105299;28;20197;-48
2023/01/09 10:39:10;;;;;;;24.73;16.83;;;;;;;14.40;53.08;94488.75;5105223;28;20196;-45
2023/01/09 10:41:41;;;;;;;22.30;16.03;;;;;;;14.94;52.82;94548.06;5103167;28;20717;-46
2023/01/09 10:44:16;;;;;;;24.77;17.00;;;;;;;15.00;52.52;94544.84;5106712;28;20200;-46
2023/01/09 10:46:49;;;;;;;15.87;14.17;;;;;;;15.02;52.73;94533.38;5106031;28;20279;-46
2023/01/09 10:49:17;;;;;;;20.87;15.87;;;;;;;15.06;52.70;94526.13;5105772;28;20713;-46
2023/01/09 10:51:47;;;;;;;20.97;15.33;;;;;;;15.12;52.73;94524.66;5106499;27;20193;-46
2023/01/09 10:54:17;;;;;;;20.73;15.50;;;;;;;15.02;52.73;94506.84;5104359;27;20300;-46
2023/01/09 10:56:51;;;;;;;15.93;13.23;;;;;;;15.07;52.70;94507.16;5107423;28;20284;-45
2023/01/09 10:59:18;;;;;;;21.90;15.20;;;;;;;15.05;52.76;94496.19;5107310;28;20759;-47
2023/01/09 11:01:46;;;;;;;20.90;14.73;;;;;;;15.00;52.93;94496.72;5108796;28;20211;-46
2023/01/09 11:04:23;;;;;;;16.83;14.37;;;;;;;15.07;52.84;94496.84;5108775;28;20679;-44
2023/01/09 11:06:55;;;;;;;17.43;14.33;;;;;;;15.11;52.84;94492.13;5108416;28;20216;-45
2023/01/09 11:09:22;;;;;;;17.27;14.17;;;;;;;15.06;52.56;94472.03;5106484;28;20651;-51
2023/01/09 11:11:49;;;;;;;19.93;14.03;;;;;;;15.12;52.73;94473.97;5108387;28;20204;-46
2023/01/09 11:14:18;;;;;;;19.23;13.90;;;;;;;15.19;52.69;94482.59;5107868;28;20605;-44
2023/01/09 11:16:54;;;;;;;16.70;13.60;;;;;;;15.22;52.70;94489.19;5108379;28;20215;-45
2023/01/09 11:19:22;;;;;;;17.00;13.70;;;;;;;15.22;52.68;94491.75;5108193;28;20212;-46
2023/01/09 11:21:49;;;;;;;16.87;13.50;;;;;;;15.09;52.61;94463.19;5108050;28;20189;-45
2023/01/09 11:24:30;;;;;;;18.57;13.20;;;;;;;15.19;52.73;94474.84;5108273;28;20654;-44
2023/01/09 11:27:26;;;;;;;18.43;13.77;;;;;;;15.18;52.82;94465.53;5108099;28;20203;-45
2023/01/09 11:30:25;;;;;;;17.77;13.13;;;;;;;15.19;52.79;94464.56;5044622;28;20194;-47
2023/01/09 11:32:55;;;;;;;18.07;13.07;;;;;;;15.17;52.94;94466.50;5045398;28;20257;-44
2023/01/09 11:35:26;;;;;;;17.53;13.10;;;;;;;15.13;52.95;94460.09;5044255;28;20747;-47
2023/01/09 11:38:05;;;;;;;17.90;13.20;;;;;;;15.13;52.88;94465.25;5043495;28;20187;-45
2023/01/09 11:40:37;;;;;;;19.47;12.30;;;;;;;15.12;53.02;94460.28;5042059;28;20226;-46
2023/01/09 11:43:13;;;;;;;16.80;12.53;;;;;;;15.12;53.00;94455.13;5039856;28;20254;-45
2023/01/09 11:45:45;;;;;;;19.27;11.97;;;;;;;15.06;53.05;94444.50;5042794;28;20275;-46
2023/01/09 11:48:38;;;;;;;15.30;11.13;;;;;;;15.11;53.11;94445.78;5044109;28;20286;-46
2023/01/09 11:51:16;;;;;;;15.17;11.33;;;;;;;15.06;53.16;94451.44;4982889;28;20193;-45
2023/01/09 11:53:54;;;;;;;14.17;10.67;;;;;;;15.09;53.14;94451.09;4988979;28;20330;-49
2023/01/09 11:56:21;;;;;;;15.33;12.03;;;;;;;15.11;53.17;94441.44;4988708;28;20912;-47
2023/01/09 11:58:48;;;;;;;13.57;10.70;;;;;;;15.13;53.03;94439.50;4987388;28;20237;-48
2023/01/09 12:01:47;;;;;;;16.67;12.73;;;;;;;15.13;53.02;94438.69;4986776;28;20189;-47
2023/01/09 12:04:27;;;;;;;15.20;11.80;;;;;;;15.02;52.91;94422.66;4987331;28;20646;-45
2023/01/09 12:07:23;;;;;;;16.27;11.37;;;;;;;15.03;53.27;94432.00;5019676;28;20194;-48
2023/01/09 12:10:01;;;;;;;15.07;11.57;;;;;;;14.98;53.19;94429.16;5046758;28;20664;-46
2023/01/09 12:12:34;;;;;;;15.90;12.30;;;;;;;14.91;53.15;94420.50;5046467;28;20198;-44
2023/01/09 12:15:14;;;;;;;14.43;10.77;;;;;;;14.89;53.16;94419.03;5046128;28;20234;-44
2023/01/09 12:18:07;;;;;;;17.73;11.80;;;;;;;14.96;53.25;94409.69;5045815;28;20226;-46
2023/01/09 12:20:50;;;;;;;14.47;11.23;;;;;;;14.99;53.08;94402.41;5045913;28;20226;-48
2023/01/09 12:23:31;;;;;;;13.30;10.60;;;;;;;14.97;52.96;94406.91;5045937;28;20302;-47
2023/01/09 12:26:13;;;;;;;13.23;10.80;;;;;;;14.91;53.13;94406.81;5043969;28;20231;-44
2023/01/09 12:28:55;;;;;;;13.97;11.27;;;;;;;14.84;53.20;94404.09;5091796;28;20662;-52
2023/01/09 12:31:39;;;;;;;16.73;11.40;;;;;;;14.78;53.04;94397.09;5106291;28;20195;-46
2023/01/09 12:34:32;;;;;;;16.67;11.00;;;;;;;14.71;53.21;94394.38;5108985;27;20680;-44
2023/01/09 12:37:14;;;;;;;16.43;11.23;;;;;;;14.64;53.25;94396.03;5108037;28;20204;-44
2023/01/09 12:39:52;;;;;;;17.47;11.43;;;;;;;14.54;53.42;94391.09;5107427;28;20196;-48
2023/01/09 12:42:32;;;;;;;13.80;11.37;;;;;;;14.45;53.33;94379.22;5106167;28;20720;-45